createdAt,value
2023-01-19T00:00:27.039Z,97871.16
2023-01-19T00:02:55.130Z,97865.70
2023-01-19T00:05:22.344Z,97860.39
2023-01-19T00:07:49.390Z,97863.11
2023-01-19T00:10:16.976Z,97867.36
2023-01-19T00:12:44.104Z,97878.45
2023-01-19T00:15:11.784Z,97881.66
2023-01-19T00:17:41.188Z,97882.24
2023-01-19T00:20:09.715Z,97892.14
2023-01-19T00:22:36.714Z,97896.27
2023-01-19T00:25:04.037Z,97898.77
2023-01-19T00:27:35.123Z,97898.38
2023-01-19T00:30:02.465Z,97899.48
2023-01-19T00:32:29.395Z,97891.88
2023-01-19T00:34:56.262Z,97887.91
2023-01-19T00:37:23.479Z,97883.10
2023-01-19T00:39:50.394Z,97887.55
2023-01-19T00:42:36.088Z,97883.66
2023-01-19T00:45:02.982Z,97876.10
2023-01-19T00:47:29.892Z,97869.82
2023-01-19T00:49:56.788Z,97860.88
2023-01-19T00:52:23.789Z,97862.13
2023-01-19T00:54:50.835Z,97860.48
2023-01-19T00:57:19.335Z,97871.55
2023-01-19T00:59:46.446Z,97879.64
2023-01-19T01:02:13.578Z,97884.95
2023-01-19T01:04:40.767Z,97894.48
2023-01-19T01:07:07.973Z,97893.36
2023-01-19T01:09:34.889Z,97897.64
2023-01-19T01:12:01.772Z,97897.00
2023-01-19T01:14:29.124Z,97905.99
2023-01-19T01:16:56.227Z,97915.77
2023-01-19T01:19:23.252Z,97913.47
2023-01-19T01:21:51.330Z,97909.23
2023-01-19T01:24:19.085Z,97915.80
2023-01-19T01:26:46.234Z,97911.57
2023-01-19T01:29:13.274Z,97919.00
2023-01-19T01:31:40.221Z,97917.96
2023-01-19T01:34:07.503Z,97920.67
2023-01-19T01:36:35.751Z,97925.75
2023-01-19T01:39:02.910Z,97927.17
2023-01-19T01:41:29.867Z,97929.27
2023-01-19T01:43:58.970Z,97924.44
2023-01-19T01:46:26.920Z,97917.55
2023-01-19T01:49:08.113Z,97916.27
2023-01-19T01:51:39.543Z,97917.73
2023-01-19T01:54:09.418Z,97911.59
2023-01-19T01:56:39.302Z,97906.85
2023-01-19T01:59:09.514Z,97911.23
2023-01-19T02:01:55.605Z,97907.92
2023-01-19T02:04:23.207Z,97902.23
2023-01-19T02:07:08.814Z,97894.19
2023-01-19T02:09:55.639Z,97889.56
2023-01-19T02:12:41.959Z,97882.33
2023-01-19T02:15:18.951Z,97878.08
2023-01-19T02:17:46.152Z,97877.45
2023-01-19T02:20:13.244Z,97880.44
2023-01-19T02:22:48.970Z,97882.03
2023-01-19T02:25:16.422Z,97878.44
2023-01-19T02:27:43.325Z,97872.19
2023-01-19T02:30:11.228Z,97869.24
2023-01-19T02:32:38.179Z,97871.29
2023-01-19T02:35:06.155Z,97871.95
2023-01-19T02:37:34.523Z,97867.55
2023-01-19T02:40:02.198Z,97868.45
2023-01-19T02:42:37.613Z,97870.02
2023-01-19T02:45:07.000Z,97875.80
2023-01-19T02:47:45.033Z,97884.02
2023-01-19T02:50:37.455Z,97881.97
2023-01-19T02:53:26.236Z,97883.69
2023-01-19T02:55:56.765Z,97888.77
2023-01-19T02:58:31.381Z,97878.14
2023-01-19T03:01:14.139Z,97871.84
2023-01-19T03:04:16.783Z,97861.90
2023-01-19T03:06:52.883Z,97859.27
2023-01-19T03:09:32.788Z,97854.66
2023-01-19T03:12:08.276Z,97844.90
2023-01-19T03:14:35.183Z,97845.83
2023-01-19T03:17:03.311Z,97844.92
2023-01-19T03:19:36.029Z,97845.16
2023-01-19T03:22:09.788Z,97836.77
2023-01-19T03:24:40.240Z,97835.59
2023-01-19T03:27:10.875Z,97845.67
2023-01-19T03:29:37.756Z,97862.13
2023-01-19T03:32:07.334Z,97856.38
2023-01-19T03:34:34.612Z,97866.30
2023-01-19T03:37:03.592Z,97872.02
2023-01-19T03:39:30.673Z,97872.84
2023-01-19T03:41:59.217Z,97873.17
2023-01-19T03:44:26.579Z,97863.27
2023-01-19T03:46:53.558Z,97845.87
2023-01-19T03:49:20.571Z,97842.47
2023-01-19T03:51:47.653Z,97822.89
2023-01-19T03:54:14.765Z,97822.55
2023-01-19T03:56:43.853Z,97829.67
2023-01-19T03:59:11.108Z,97833.48
2023-01-19T04:01:38.023Z,97850.44
2023-01-19T04:04:05.077Z,97869.08
2023-01-19T04:06:32.468Z,97864.13
2023-01-19T04:08:59.502Z,97850.16
2023-01-19T04:11:26.455Z,97843.55
2023-01-19T04:13:53.510Z,97846.11
2023-01-19T04:16:21.440Z,97840.21
2023-01-19T04:18:48.737Z,97838.85
2023-01-19T04:21:15.744Z,97834.12
2023-01-19T04:23:44.484Z,97827.45
2023-01-19T04:26:11.406Z,97825.73
2023-01-19T04:28:38.633Z,97827.67
2023-01-19T04:31:06.544Z,97826.09
2023-01-19T04:33:33.671Z,97820.17
2023-01-19T04:36:00.843Z,97810.65
2023-01-19T04:38:27.770Z,97805.36
2023-01-19T04:40:55.007Z,97805.05
2023-01-19T04:43:22.302Z,97809.88
2023-01-19T04:45:49.384Z,97805.73
2023-01-19T04:48:18.717Z,97804.33
2023-01-19T04:50:46.160Z,97801.93
2023-01-19T04:53:13.918Z,97809.86
2023-01-19T04:55:41.048Z,97825.58
2023-01-19T04:58:08.202Z,97828.13
2023-01-19T05:00:35.402Z,97836.44
2023-01-19T05:03:02.927Z,97839.48
2023-01-19T05:05:30.243Z,97827.52
2023-01-19T05:07:57.233Z,97824.44
2023-01-19T05:10:24.284Z,97836.02
2023-01-19T05:12:51.548Z,97871.38
2023-01-19T05:15:18.484Z,97867.17
2023-01-19T05:17:45.943Z,97870.85
2023-01-19T05:20:15.953Z,97897.95
2023-01-19T05:22:48.766Z,97920.58
2023-01-19T05:25:15.827Z,97928.95
2023-01-19T05:27:43.272Z,97930.58
2023-01-19T05:30:11.486Z,97929.52
2023-01-19T05:32:38.380Z,97919.80
2023-01-19T05:35:06.219Z,97904.91
2023-01-19T05:37:33.183Z,97900.72
2023-01-19T05:40:00.132Z,97887.90
2023-01-19T05:42:27.114Z,97880.14
2023-01-19T05:44:54.122Z,97876.33
2023-01-19T05:47:21.023Z,97872.08
2023-01-19T05:49:48.007Z,97864.92
2023-01-19T05:52:15.069Z,97849.98
2023-01-19T05:54:42.114Z,97835.27
2023-01-19T05:57:09.346Z,97831.92
2023-01-19T05:59:36.251Z,97807.40
2023-01-19T06:02:03.632Z,97814.73
2023-01-19T06:04:30.906Z,97809.31
2023-01-19T06:06:57.880Z,97793.92
2023-01-19T06:09:24.787Z,97789.94
2023-01-19T06:11:54.366Z,97786.67
2023-01-19T06:14:21.254Z,97781.30
2023-01-19T06:16:48.304Z,97776.66
2023-01-19T06:19:15.235Z,97771.11
2023-01-19T06:21:42.725Z,97767.98
2023-01-19T06:24:09.888Z,97763.36
2023-01-19T06:26:37.589Z,97762.85
2023-01-19T06:29:04.431Z,97760.73
2023-01-19T06:31:31.377Z,97755.16
2023-01-19T06:33:58.411Z,97747.10
2023-01-19T06:36:25.473Z,97741.33
2023-01-19T06:38:52.343Z,97736.75
2023-01-19T06:41:19.392Z,97724.73
2023-01-19T06:43:46.411Z,97715.08
2023-01-19T06:46:14.043Z,97706.89
2023-01-19T06:48:41.486Z,97697.84
2023-01-19T06:51:08.731Z,97696.10
2023-01-19T06:53:35.725Z,97693.34
2023-01-19T06:56:03.398Z,97687.91
2023-01-19T06:58:31.771Z,97684.82
2023-01-19T07:01:03.570Z,97688.82
2023-01-19T07:03:30.616Z,97692.77
2023-01-19T07:05:57.823Z,97702.14
2023-01-19T07:08:24.724Z,97706.31
2023-01-19T07:11:25.279Z,97704.73
2023-01-19T07:13:39.660Z,97702.59
2023-01-19T07:16:11.607Z,97696.57
2023-01-19T07:18:39.117Z,97697.73
2023-01-19T07:21:06.827Z,97694.42
2023-01-19T07:23:34.144Z,97694.51
2023-01-19T07:26:01.950Z,97690.92
2023-01-19T07:28:29.905Z,97688.85
2023-01-19T07:30:56.854Z,97683.84
2023-01-19T07:33:25.062Z,97681.05
2023-01-19T07:35:52.588Z,97672.84
2023-01-19T07:38:19.785Z,97667.09
2023-01-19T07:40:47.247Z,97667.46
2023-01-19T07:43:14.984Z,97663.60
2023-01-19T07:45:43.006Z,97649.98
2023-01-19T07:48:09.997Z,97646.15
2023-01-19T07:50:37.246Z,97650.93
2023-01-19T07:53:08.401Z,97653.80
2023-01-19T07:55:35.664Z,97653.08
2023-01-19T07:58:06.662Z,97653.23
2023-01-19T08:00:35.440Z,97656.16
2023-01-19T08:03:03.373Z,97656.20
2023-01-19T08:05:31.513Z,97654.38
2023-01-19T08:07:58.861Z,97651.70
2023-01-19T08:10:26.904Z,97641.09
2023-01-19T08:12:54.602Z,97631.69
2023-01-19T08:15:24.135Z,97627.80
2023-01-19T08:17:58.303Z,97616.70
2023-01-19T08:20:25.979Z,97612.00
2023-01-19T08:23:00.299Z,97619.30
2023-01-19T08:25:36.366Z,97630.41
2023-01-19T08:28:04.457Z,97641.58
2023-01-19T08:30:31.482Z,97641.44
2023-01-19T08:33:04.298Z,97637.93
2023-01-19T08:35:32.230Z,97635.08
2023-01-19T08:38:01.829Z,97645.41
2023-01-19T08:40:30.465Z,97643.23
2023-01-19T08:43:03.724Z,97643.52
2023-01-19T08:45:33.707Z,97650.08
2023-01-19T08:48:01.179Z,97653.89
2023-01-19T08:50:29.248Z,97651.58
2023-01-19T08:52:58.266Z,97643.16
2023-01-19T08:55:26.059Z,97638.11
2023-01-19T08:57:53.856Z,97634.56
2023-01-19T09:00:21.405Z,97635.80
2023-01-19T09:02:48.566Z,97640.54
2023-01-19T09:05:15.822Z,97639.16
2023-01-19T09:07:44.484Z,97652.65
2023-01-19T09:10:11.611Z,97659.40
2023-01-19T09:12:38.816Z,97652.55
2023-01-19T09:15:07.185Z,97649.28
2023-01-19T09:17:34.647Z,97642.73
2023-01-19T09:20:01.593Z,97638.33
2023-01-19T09:22:28.651Z,97634.45
2023-01-19T09:24:55.787Z,97629.23
2023-01-19T09:27:23.149Z,97623.20
2023-01-19T09:29:52.951Z,97617.14
2023-01-19T09:32:20.716Z,97614.55
2023-01-19T09:34:47.767Z,97617.31
2023-01-19T09:37:16.322Z,97621.11
2023-01-19T09:39:43.507Z,97620.65
2023-01-19T09:42:35.121Z,97612.60
2023-01-19T09:45:03.422Z,97614.45
2023-01-19T09:47:30.455Z,97611.14
2023-01-19T09:50:06.862Z,97609.59
2023-01-19T09:52:36.308Z,97609.36
2023-01-19T09:55:03.360Z,97604.52
2023-01-19T09:57:30.477Z,97598.27
2023-01-19T10:00:00.334Z,97594.59
2023-01-19T10:02:36.821Z,97594.23
2023-01-19T10:05:29.064Z,97587.14
2023-01-19T10:08:18.194Z,97583.42
2023-01-19T10:10:52.848Z,97577.31
2023-01-19T10:13:32.217Z,97575.05
2023-01-19T10:16:39.782Z,97564.27
2023-01-19T10:19:23.089Z,97564.16
2023-01-19T10:21:50.335Z,97553.96
2023-01-19T10:24:33.381Z,97554.36
2023-01-19T10:27:00.528Z,97556.09
2023-01-19T10:29:34.617Z,97544.83
2023-01-19T10:32:26.213Z,97542.54
2023-01-19T10:34:54.007Z,97541.20
2023-01-19T10:37:32.240Z,97534.57
2023-01-19T10:40:11.470Z,97533.25
2023-01-19T10:42:40.368Z,97521.63
2023-01-19T10:45:21.154Z,97519.16
2023-01-19T10:47:48.864Z,97527.29
2023-01-19T10:50:29.406Z,97520.54
2023-01-19T10:53:03.885Z,97524.58
2023-01-19T10:55:32.030Z,97520.88
2023-01-19T10:57:59.052Z,97527.20
2023-01-19T11:00:39.254Z,97528.35
2023-01-19T11:03:25.360Z,97525.05
2023-01-19T11:05:52.348Z,97521.04
2023-01-19T11:08:24.316Z,97517.73
2023-01-19T11:10:58.538Z,97520.27
2023-01-19T11:13:25.489Z,97517.70
2023-01-19T11:15:54.797Z,97525.67
2023-01-19T11:18:49.495Z,97537.86
2023-01-19T11:21:16.517Z,97536.44
2023-01-19T11:23:46.970Z,97521.67
2023-01-19T11:26:16.457Z,97523.38
2023-01-19T11:28:46.880Z,97513.42
2023-01-19T11:31:13.897Z,97511.68
2023-01-19T11:33:52.456Z,97522.77
2023-01-19T11:36:24.165Z,97512.23
2023-01-19T11:38:53.166Z,97514.25
2023-01-19T11:41:22.234Z,97521.63
2023-01-19T11:43:50.883Z,97515.86
2023-01-19T11:46:17.926Z,97494.27
2023-01-19T11:49:02.275Z,97490.56
2023-01-19T11:51:34.296Z,97489.80
2023-01-19T11:54:01.418Z,97493.34
2023-01-19T11:56:29.107Z,97504.77
2023-01-19T11:58:56.024Z,97515.50
2023-01-19T12:01:25.099Z,97517.41
2023-01-19T12:04:02.822Z,97518.13
2023-01-19T12:06:31.723Z,97521.67
2023-01-19T12:09:03.960Z,97537.28
2023-01-19T12:11:33.898Z,97537.26
2023-01-19T12:14:01.073Z,97544.38
2023-01-19T12:16:29.601Z,97541.76
2023-01-19T12:19:01.705Z,97543.84
2023-01-19T12:21:28.565Z,97535.09
2023-01-19T12:24:13.917Z,97521.75
2023-01-19T12:26:56.461Z,97523.50
2023-01-19T12:29:28.822Z,97523.94
2023-01-19T12:32:14.436Z,97525.48
2023-01-19T12:34:49.827Z,97543.05
2023-01-19T12:37:42.040Z,97551.80
2023-01-19T12:40:21.595Z,97555.64
2023-01-19T12:42:55.748Z,97557.71
2023-01-19T12:45:25.012Z,97563.88
2023-01-19T12:47:55.213Z,97559.22
2023-01-19T12:50:24.182Z,97552.66
2023-01-19T12:52:58.617Z,97544.11
2023-01-19T12:55:25.871Z,97553.16
2023-01-19T12:58:17.116Z,97551.97
2023-01-19T13:00:45.506Z,97555.47
2023-01-19T13:03:18.674Z,97555.72
2023-01-19T13:05:53.481Z,97560.75
2023-01-19T13:08:30.047Z,97558.11
2023-01-19T13:11:00.205Z,97560.35
2023-01-19T13:13:37.443Z,97552.41
2023-01-19T13:16:19.965Z,97557.28
2023-01-19T13:18:53.156Z,97567.47
2023-01-19T13:21:36.348Z,97568.27
2023-01-19T13:24:05.030Z,97560.11
2023-01-19T13:26:38.700Z,97555.04
2023-01-19T13:29:10.768Z,97565.52
2023-01-19T13:31:39.003Z,97566.42
2023-01-19T13:34:11.825Z,97560.50
2023-01-19T13:36:41.375Z,97562.73
2023-01-19T13:39:13.891Z,97567.35
2023-01-19T13:41:43.677Z,97567.66
2023-01-19T13:44:21.816Z,97567.52
2023-01-19T13:46:48.756Z,97560.77
2023-01-19T13:49:33.698Z,97568.29
2023-01-19T13:52:27.449Z,97581.44
2023-01-19T13:55:04.688Z,97585.54
2023-01-19T13:57:32.488Z,97588.86
2023-01-19T14:00:05.343Z,97587.64
2023-01-19T14:02:41.954Z,97591.13
2023-01-19T14:05:41.054Z,97585.87
2023-01-19T14:08:13.921Z,97584.27
2023-01-19T14:10:42.574Z,97587.45
2023-01-19T14:13:25.885Z,97583.30
2023-01-19T14:15:55.419Z,97578.56
2023-01-19T14:18:22.314Z,97573.06
2023-01-19T14:21:03.719Z,97565.90
2023-01-19T14:23:38.099Z,97566.98
2023-01-19T14:26:05.630Z,97571.93
2023-01-19T14:28:39.419Z,97577.73
2023-01-19T14:31:20.979Z,97576.83
2023-01-19T14:33:49.475Z,97580.18
2023-01-19T14:36:17.921Z,97583.36
2023-01-19T14:38:48.711Z,97576.20
2023-01-19T14:41:37.867Z,97579.94
2023-01-19T14:44:11.226Z,97583.36
2023-01-19T14:46:38.381Z,97583.09
2023-01-19T14:49:06.273Z,97581.95
2023-01-19T14:51:33.109Z,97585.58
2023-01-19T14:54:00.144Z,97583.00
2023-01-19T14:56:28.915Z,97578.73
2023-01-19T14:58:59.955Z,97584.05
2023-01-19T15:01:31.884Z,97589.43
2023-01-19T15:03:58.998Z,97588.21
2023-01-19T15:06:26.117Z,97590.50
2023-01-19T15:08:56.096Z,97585.79
2023-01-19T15:11:27.937Z,97587.89
2023-01-19T15:13:55.596Z,97592.90
2023-01-19T15:16:23.414Z,97598.59
2023-01-19T15:18:50.476Z,97592.58
2023-01-19T15:21:23.601Z,97590.02
2023-01-19T15:23:50.676Z,97591.54
2023-01-19T15:26:19.102Z,97585.52
2023-01-19T15:28:46.134Z,97578.69
2023-01-19T15:31:20.440Z,97584.39
2023-01-19T15:33:47.492Z,97590.75
2023-01-19T15:36:18.597Z,97595.84
2023-01-19T15:38:46.431Z,97591.94
2023-01-19T15:41:26.191Z,97586.73
2023-01-19T15:43:53.247Z,97588.67
2023-01-19T15:46:20.854Z,97582.14
2023-01-19T15:48:48.594Z,97581.70
2023-01-19T15:51:28.925Z,97589.16
2023-01-19T15:53:56.016Z,97594.44
2023-01-19T15:56:24.990Z,97590.75
2023-01-19T15:58:52.698Z,97583.89
2023-01-19T16:01:21.733Z,97576.70
2023-01-19T16:03:49.253Z,97575.54
2023-01-19T16:06:16.688Z,97580.29
2023-01-19T16:08:43.746Z,97575.70
2023-01-19T16:11:14.913Z,97575.09
2023-01-19T16:13:45.473Z,97571.53
2023-01-19T16:16:15.176Z,97569.04
2023-01-19T16:18:42.244Z,97564.74
2023-01-19T16:21:09.531Z,97576.16
2023-01-19T16:23:36.752Z,97578.03
2023-01-19T16:26:08.231Z,97578.36
2023-01-19T16:28:35.937Z,97578.09
2023-01-19T16:31:03.708Z,97575.11
2023-01-19T16:33:30.735Z,97567.81
2023-01-19T16:35:57.796Z,97564.07
2023-01-19T16:38:25.041Z,97560.01
2023-01-19T16:40:53.165Z,97560.20
2023-01-19T16:43:20.712Z,97559.43
2023-01-19T16:45:59.045Z,97567.39
2023-01-19T16:48:28.746Z,97570.52
2023-01-19T16:51:00.463Z,97564.55
2023-01-19T16:53:27.893Z,97562.39
2023-01-19T16:55:54.954Z,97560.81
2023-01-19T16:58:22.362Z,97551.98
2023-01-19T17:00:50.864Z,97556.02
2023-01-19T17:03:20.225Z,97555.85
2023-01-19T17:05:52.706Z,97550.08
2023-01-19T17:08:22.708Z,97555.99
2023-01-19T17:10:51.714Z,97552.33
2023-01-19T17:13:20.458Z,97561.80
2023-01-19T17:15:50.456Z,97560.13
2023-01-19T17:18:20.121Z,97562.27
2023-01-19T17:20:48.727Z,97561.78
2023-01-19T17:23:18.733Z,97556.36
2023-01-19T17:25:57.519Z,97553.73
2023-01-19T17:28:27.729Z,97555.55
2023-01-19T17:30:57.824Z,97553.66
2023-01-19T17:33:27.144Z,97561.20
2023-01-19T17:35:56.472Z,97559.27
2023-01-19T17:38:25.058Z,97558.04
2023-01-19T17:40:54.984Z,97564.83
2023-01-19T17:43:23.773Z,97563.39
2023-01-19T17:45:53.289Z,97567.81
2023-01-19T17:48:22.769Z,97555.27
2023-01-19T17:50:54.778Z,97556.66
2023-01-19T17:53:24.055Z,97557.77
2023-01-19T17:55:53.227Z,97561.27
2023-01-19T17:58:23.699Z,97561.58
2023-01-19T18:08:20.919Z,97553.42
2023-01-19T18:10:57.922Z,97554.48
2023-01-19T18:13:25.051Z,97553.33
2023-01-19T18:15:52.435Z,97552.11
2023-01-19T18:18:19.606Z,97552.91
2023-01-19T18:20:48.031Z,97559.02
2023-01-19T18:23:14.978Z,97563.36
2023-01-19T18:25:43.363Z,97572.02
2023-01-19T18:28:10.290Z,97580.45
2023-01-19T18:30:37.418Z,97587.73
2023-01-19T18:33:04.499Z,97583.27
2023-01-19T18:35:31.648Z,97575.01
2023-01-19T18:37:58.998Z,97576.02
2023-01-19T18:40:26.356Z,97578.65
2023-01-19T18:42:53.312Z,97575.27
2023-01-19T18:45:20.157Z,97571.05
2023-01-19T18:47:47.420Z,97566.92
2023-01-19T18:50:14.715Z,97567.81
2023-01-19T18:52:41.979Z,97569.96
2023-01-19T18:55:09.653Z,97567.16
2023-01-19T18:57:38.311Z,97567.77
2023-01-19T19:00:06.113Z,97572.34
2023-01-19T19:02:33.465Z,97574.12
2023-01-19T19:05:01.947Z,97582.87
2023-01-19T19:07:29.520Z,97590.85
2023-01-19T19:09:56.557Z,97601.53
2023-01-19T19:12:24.143Z,97602.95
2023-01-19T19:14:51.158Z,97605.41
2023-01-19T19:17:18.084Z,97615.23
2023-01-19T19:19:45.074Z,97622.74
2023-01-19T19:22:11.988Z,97631.51
2023-01-19T19:24:42.775Z,97632.04
2023-01-19T19:27:14.356Z,97635.73
2023-01-19T19:29:41.727Z,97631.09
2023-01-19T19:32:08.844Z,97635.13
2023-01-19T19:34:35.761Z,97639.70
2023-01-19T19:37:02.676Z,97639.79
2023-01-19T19:39:29.721Z,97644.42
2023-01-19T19:41:56.653Z,97641.93
2023-01-19T19:44:23.755Z,97642.77
2023-01-19T19:46:50.794Z,97644.69
2023-01-19T19:49:23.817Z,97650.39
2023-01-19T19:51:50.758Z,97651.41
2023-01-19T19:54:17.741Z,97651.41
2023-01-19T19:56:46.069Z,97646.48
2023-01-19T19:59:13.069Z,97644.70
2023-01-19T20:02:35.680Z,97643.32
2023-01-19T20:05:02.916Z,97639.82
2023-01-19T20:07:29.971Z,97640.01
2023-01-19T20:09:56.902Z,97646.23
2023-01-19T20:12:23.957Z,97644.46
2023-01-19T20:14:53.939Z,97648.30
2023-01-19T20:17:21.283Z,97653.34
2023-01-19T20:19:49.193Z,97658.73
2023-01-19T20:22:16.122Z,97657.14
2023-01-19T20:24:43.495Z,97649.60
2023-01-19T20:27:10.613Z,97643.77
2023-01-19T20:29:37.851Z,97643.79
2023-01-19T20:32:04.997Z,97640.92
2023-01-19T20:34:33.642Z,97642.06
2023-01-19T20:37:01.943Z,97649.21
2023-01-19T20:39:33.407Z,97654.09
2023-01-19T20:42:01.397Z,97646.50
2023-01-19T20:44:28.628Z,97645.38
2023-01-19T20:46:56.236Z,97637.08
2023-01-19T20:49:23.341Z,97640.82
2023-01-19T20:51:52.363Z,97663.48
2023-01-19T20:54:22.566Z,97668.99
2023-01-19T20:56:49.713Z,97678.64
2023-01-19T20:59:16.750Z,97704.25
2023-01-19T21:01:44.132Z,97722.42
2023-01-19T21:04:11.248Z,97729.48
2023-01-19T21:06:38.520Z,97739.70
2023-01-19T21:09:07.049Z,97742.44
2023-01-19T21:11:35.902Z,97752.02
2023-01-19T21:14:03.045Z,97754.77
2023-01-19T21:16:32.670Z,97756.39
2023-01-19T21:18:59.981Z,97762.20
2023-01-19T21:21:31.675Z,97758.92
2023-01-19T21:24:01.798Z,97757.83
2023-01-19T21:26:33.664Z,97756.11
2023-01-19T21:29:01.705Z,97754.64
2023-01-19T21:31:29.006Z,97756.36
2023-01-19T21:33:57.157Z,97758.47
2023-01-19T21:36:24.823Z,97758.38
2023-01-19T21:38:52.691Z,97749.98
2023-01-19T21:41:19.806Z,97757.94
2023-01-19T21:43:47.157Z,97766.47
2023-01-19T21:46:21.907Z,97779.34
2023-01-19T21:48:48.933Z,97776.65
2023-01-19T21:51:15.851Z,97780.19
2023-01-19T21:53:42.856Z,97791.73
2023-01-19T21:56:10.560Z,97812.83
2023-01-19T21:58:37.751Z,97813.56
2023-01-19T22:01:07.431Z,97815.36
2023-01-19T22:03:34.393Z,97812.86
2023-01-19T22:14:50.130Z,97807.92
2023-01-19T22:17:17.388Z,97780.27
2023-01-19T22:19:44.437Z,97771.79
2023-01-19T22:22:11.436Z,97771.64
2023-01-19T22:24:38.922Z,97775.90
2023-01-19T22:27:05.918Z,97766.67
2023-01-19T22:29:32.847Z,97760.56
2023-01-19T22:31:59.882Z,97753.35
2023-01-19T22:34:26.951Z,97759.52
2023-01-19T22:36:53.954Z,97770.45
2023-01-19T22:39:20.864Z,97782.15
2023-01-19T22:41:48.061Z,97795.48
2023-01-19T22:44:21.134Z,97802.02
2023-01-19T22:46:48.901Z,97797.03
2023-01-19T22:49:16.711Z,97790.68
2023-01-19T22:51:44.135Z,97794.25
2023-01-19T22:54:11.137Z,97789.07
2023-01-19T22:56:38.836Z,97785.21
2023-01-19T22:59:06.596Z,97794.94
2023-01-19T23:01:38.664Z,97799.46
2023-01-19T23:04:06.010Z,97803.43
2023-01-19T23:06:34.776Z,97792.20
2023-01-19T23:09:03.621Z,97773.09
2023-01-19T23:11:35.708Z,97773.16
2023-01-19T23:14:03.976Z,97812.28
2023-01-19T23:16:30.884Z,97825.83
2023-01-19T23:18:58.133Z,97831.52
2023-01-19T23:21:26.837Z,97833.42
2023-01-19T23:23:58.191Z,97842.02
2023-01-19T23:26:25.277Z,97843.64
2023-01-19T23:28:56.713Z,97847.19
2023-01-19T23:31:32.207Z,97848.16
2023-01-19T23:34:06.909Z,97845.91
2023-01-19T23:36:35.175Z,97847.92
2023-01-19T23:39:21.698Z,97860.30
2023-01-19T23:42:08.328Z,97878.39
2023-01-19T23:44:36.032Z,97885.51
2023-01-19T23:47:02.933Z,97886.80
2023-01-19T23:49:29.863Z,97887.85
2023-01-19T23:51:56.915Z,97883.88
2023-01-19T23:54:23.796Z,97890.14
2023-01-19T23:56:50.667Z,97893.46
2023-01-19T23:59:17.690Z,97895.12
